createdAt,value
2017-09-02T00:02:14.353Z,98.40
2017-09-02T00:04:41.787Z,98.40
2017-09-02T00:07:09.219Z,98.20
2017-09-02T00:09:36.652Z,98.10
2017-09-02T00:12:04.092Z,98.40
2017-09-02T00:14:31.523Z,98.60
2017-09-02T00:16:58.965Z,98.30
2017-09-02T00:19:26.390Z,98.40
2017-09-02T00:21:53.828Z,98.50
2017-09-02T00:24:21.267Z,98.30
2017-09-02T00:26:48.966Z,98.30
2017-09-02T00:29:16.383Z,98.40
2017-09-02T00:31:43.824Z,98.10
2017-09-02T00:34:11.251Z,98.30
2017-09-02T00:36:38.691Z,98.30
2017-09-02T00:39:06.119Z,98.50
2017-09-02T00:41:33.568Z,98.20
2017-09-02T00:44:01.011Z,98.50
2017-09-02T00:46:28.435Z,98.50
2017-09-02T00:48:55.875Z,98.80
2017-09-02T00:51:23.311Z,99.00
2017-09-02T00:53:50.752Z,99.40
2017-09-02T00:56:18.180Z,99.30
2017-09-02T00:58:45.611Z,99.40
2017-09-02T01:01:13.044Z,99.70
2017-09-02T01:03:40.481Z,99.90
2017-09-02T01:06:07.912Z,99.90
2017-09-02T01:08:35.354Z,99.90
2017-09-02T01:11:02.779Z,99.90
2017-09-02T01:13:30.220Z,99.90
2017-09-02T01:15:57.653Z,99.90
2017-09-02T01:18:25.090Z,99.90
2017-09-02T01:20:52.532Z,99.90
2017-09-02T01:23:19.971Z,99.90
2017-09-02T01:25:47.401Z,99.90
2017-09-02T01:28:14.840Z,99.90
2017-09-02T01:30:42.274Z,99.90
2017-09-02T01:33:09.711Z,99.90
2017-09-02T01:35:37.136Z,99.90
2017-09-02T01:38:04.580Z,99.90
2017-09-02T01:40:32.016Z,99.90
2017-09-02T01:42:59.451Z,99.90
2017-09-02T01:45:26.883Z,99.90
2017-09-02T01:47:54.314Z,99.90
2017-09-02T01:50:21.757Z,99.90
2017-09-02T01:52:49.182Z,99.90
2017-09-02T01:55:16.627Z,99.90
2017-09-02T01:57:44.058Z,99.90
2017-09-02T02:00:11.491Z,99.90
2017-09-02T02:02:38.931Z,99.90
2017-09-02T02:05:06.363Z,99.90
2017-09-02T02:07:33.801Z,99.90
2017-09-02T02:10:01.244Z,99.90
2017-09-02T02:12:28.675Z,99.90
2017-09-02T02:14:56.113Z,99.90
2017-09-02T02:17:23.554Z,99.90
2017-09-02T02:19:50.987Z,99.90
2017-09-02T02:22:18.422Z,99.90
2017-09-02T02:24:45.860Z,99.90
2017-09-02T02:27:13.295Z,99.90
2017-09-02T02:29:40.734Z,99.90
2017-09-02T02:32:08.167Z,99.90
2017-09-02T02:34:35.603Z,99.90
2017-09-02T02:37:03.036Z,99.90
2017-09-02T02:39:30.490Z,99.90
2017-09-02T02:41:57.928Z,99.90
2017-09-02T02:44:25.362Z,99.90
2017-09-02T02:46:52.805Z,99.90
2017-09-02T02:49:20.240Z,99.90
2017-09-02T02:51:47.663Z,99.90
2017-09-02T02:54:15.092Z,99.90
2017-09-02T02:56:42.527Z,99.90
2017-09-02T02:59:09.965Z,99.90
2017-09-02T03:01:37.399Z,99.90
2017-09-02T03:04:04.828Z,99.90
2017-09-02T03:06:32.267Z,99.90
2017-09-02T03:08:59.698Z,99.90
2017-09-02T03:11:27.140Z,99.90
2017-09-02T03:13:54.573Z,99.90
2017-09-02T03:16:22.020Z,99.90
2017-09-02T03:18:49.456Z,99.90
2017-09-02T03:21:16.900Z,99.90
2017-09-02T03:23:44.331Z,99.90
2017-09-02T03:26:11.770Z,99.90
2017-09-02T03:28:39.208Z,99.90
2017-09-02T03:31:06.660Z,99.90
2017-09-02T03:33:34.086Z,99.90
2017-09-02T03:36:01.524Z,99.90
2017-09-02T03:38:28.966Z,99.90
2017-09-02T03:40:56.424Z,99.90
2017-09-02T03:43:23.856Z,99.90
2017-09-02T03:45:51.290Z,99.90
2017-09-02T03:48:18.724Z,99.90
2017-09-02T03:50:46.155Z,99.90
2017-09-02T03:53:13.594Z,99.90
2017-09-02T03:55:41.032Z,99.90
2017-09-02T03:58:08.463Z,99.90
2017-09-02T04:00:35.896Z,99.90
2017-09-02T04:03:03.331Z,99.90
2017-09-02T04:05:30.765Z,99.90
2017-09-02T04:07:58.205Z,99.90
2017-09-02T04:10:25.637Z,99.90
2017-09-02T04:12:53.068Z,99.90
2017-09-02T04:15:20.499Z,99.90
2017-09-02T04:17:47.942Z,99.90
2017-09-02T04:20:15.367Z,99.90
2017-09-02T04:22:42.812Z,99.90
2017-09-02T04:25:10.245Z,99.90
2017-09-02T04:27:37.677Z,99.90
2017-09-02T04:30:05.115Z,99.90
2017-09-02T04:32:32.547Z,99.90
2017-09-02T04:34:59.984Z,99.90
2017-09-02T04:37:27.419Z,99.90
2017-09-02T04:39:54.852Z,99.90
2017-09-02T04:42:22.302Z,99.90
2017-09-02T04:44:49.734Z,99.90
2017-09-02T04:47:17.180Z,99.90
2017-09-02T04:49:44.607Z,99.90
2017-09-02T04:52:12.044Z,99.90
2017-09-02T04:54:39.482Z,99.90
2017-09-02T04:57:06.915Z,99.90
2017-09-02T04:59:34.348Z,99.90
2017-09-02T05:02:01.776Z,99.90
2017-09-02T05:04:29.215Z,99.90
2017-09-02T05:06:56.659Z,99.90
2017-09-02T05:09:24.092Z,99.90
2017-09-02T05:11:51.532Z,99.90
2017-09-02T05:14:18.980Z,99.90
2017-09-02T05:19:20.324Z,99.90
2017-09-02T05:21:47.761Z,99.90
2017-09-02T05:24:15.200Z,99.90
2017-09-02T05:26:42.644Z,99.90
2017-09-02T05:29:10.071Z,99.90
2017-09-02T05:31:37.504Z,99.90
2017-09-02T05:34:04.934Z,99.90
2017-09-02T05:36:32.366Z,99.90
2017-09-02T05:38:59.799Z,99.90
2017-09-02T05:41:27.237Z,99.90
2017-09-02T05:43:54.673Z,99.90
2017-09-02T05:46:22.121Z,99.90
2017-09-02T05:48:49.552Z,99.90
2017-09-02T05:51:16.987Z,99.90
2017-09-02T05:53:44.427Z,99.90
2017-09-02T05:56:11.863Z,99.90
2017-09-02T05:58:39.296Z,99.90
2017-09-02T06:01:06.739Z,99.90
2017-09-02T06:03:34.172Z,99.90
2017-09-02T06:06:01.614Z,99.90
2017-09-02T06:08:29.042Z,99.90
2017-09-02T06:10:56.471Z,99.90
2017-09-02T06:13:23.903Z,99.90
2017-09-02T06:15:51.344Z,99.90
2017-09-02T06:18:18.776Z,99.90
2017-09-02T06:20:46.211Z,99.90
2017-09-02T06:23:13.653Z,99.90
2017-09-02T06:25:41.093Z,99.90
2017-09-02T06:28:08.529Z,99.90
2017-09-02T06:30:35.964Z,99.90
2017-09-02T06:33:03.400Z,99.90
2017-09-02T06:35:30.840Z,99.90
2017-09-02T06:37:58.272Z,99.90
2017-09-02T06:40:25.709Z,99.90
2017-09-02T06:42:53.135Z,99.90
2017-09-02T06:45:20.575Z,99.90
2017-09-02T06:47:48.016Z,99.90
2017-09-02T06:50:15.448Z,99.90
2017-09-02T06:52:42.883Z,99.90
2017-09-02T06:55:10.319Z,99.90
2017-09-02T06:57:37.760Z,99.90
2017-09-02T07:00:05.194Z,99.90
2017-09-02T07:02:32.623Z,99.90
2017-09-02T07:05:00.055Z,99.90
2017-09-02T07:07:27.488Z,99.90
2017-09-02T07:09:54.919Z,99.90
2017-09-02T07:12:22.351Z,99.90
2017-09-02T07:14:49.796Z,99.90
2017-09-02T07:17:17.233Z,99.90
2017-09-02T07:19:44.664Z,99.90
2017-09-02T07:22:12.107Z,99.90
2017-09-02T07:24:39.536Z,99.90
2017-09-02T07:27:06.975Z,99.90
2017-09-02T07:29:34.412Z,99.90
2017-09-02T07:32:01.843Z,99.90
2017-09-02T07:34:29.276Z,99.90
2017-09-02T07:36:56.710Z,99.90
2017-09-02T07:39:24.147Z,99.90
2017-09-02T07:41:51.580Z,99.90
2017-09-02T07:44:19.012Z,99.90
2017-09-02T07:46:46.452Z,99.90
2017-09-02T07:49:13.884Z,99.90
2017-09-02T07:51:41.313Z,99.90
2017-09-02T07:54:08.759Z,99.90
2017-09-02T07:56:36.179Z,99.90
2017-09-02T07:59:03.620Z,99.90
2017-09-02T08:01:31.056Z,99.90
2017-09-02T08:03:58.495Z,99.90
2017-09-02T08:06:25.930Z,99.90
2017-09-02T08:08:53.364Z,99.90
2017-09-02T08:11:20.803Z,99.90
2017-09-02T08:13:48.242Z,99.90
2017-09-02T08:16:15.678Z,99.90
2017-09-02T08:18:43.124Z,99.90
2017-09-02T08:21:10.562Z,99.90
2017-09-02T08:23:38.006Z,99.90
2017-09-02T08:26:05.436Z,99.90
2017-09-02T08:28:32.881Z,99.90
2017-09-02T08:31:00.307Z,99.90
2017-09-02T08:33:27.752Z,99.90
2017-09-02T08:35:55.186Z,99.90
2017-09-02T08:38:22.629Z,99.90
2017-09-02T08:40:50.068Z,99.90
2017-09-02T08:43:17.752Z,99.90
2017-09-02T08:45:45.185Z,99.90
2017-09-02T08:48:12.627Z,99.90
2017-09-02T08:50:40.090Z,99.90
2017-09-02T08:53:07.516Z,99.90
2017-09-02T08:55:34.943Z,99.90
2017-09-02T08:58:02.384Z,99.90
2017-09-02T09:00:29.820Z,99.90
2017-09-02T09:02:57.257Z,99.90
2017-09-02T09:05:24.693Z,99.90
2017-09-02T09:07:52.123Z,99.90
2017-09-02T09:10:19.566Z,99.90
2017-09-02T09:12:46.996Z,99.90
2017-09-02T09:15:14.437Z,99.90
2017-09-02T09:17:41.872Z,99.90
2017-09-02T09:20:09.321Z,99.90
2017-09-02T09:22:36.755Z,99.90
2017-09-02T09:25:04.197Z,99.90
2017-09-02T09:27:31.624Z,99.90
2017-09-02T09:29:59.064Z,99.90
2017-09-02T09:32:26.497Z,99.90
2017-09-02T09:34:53.935Z,99.90
2017-09-02T09:37:21.369Z,99.90
2017-09-02T09:39:48.807Z,99.90
2017-09-02T09:42:16.241Z,99.90
2017-09-02T09:44:43.688Z,99.90
2017-09-02T09:47:11.134Z,99.50
2017-09-02T09:49:38.566Z,99.90
2017-09-02T09:52:06.004Z,98.50
2017-09-02T09:54:33.441Z,97.40
2017-09-02T09:57:00.890Z,98.00
2017-09-02T09:59:28.317Z,99.10
2017-09-02T10:01:55.762Z,98.70
2017-09-02T10:04:23.200Z,98.10
2017-09-02T10:06:50.646Z,96.80
2017-09-02T10:09:18.095Z,98.80
2017-09-02T10:11:45.536Z,98.10
2017-09-02T10:14:12.982Z,99.60
2017-09-02T10:16:40.422Z,99.00
2017-09-02T10:19:07.855Z,98.40
2017-09-02T10:21:35.296Z,98.10
2017-09-02T10:24:02.739Z,97.80
2017-09-02T10:26:30.188Z,98.10
2017-09-02T10:28:57.636Z,97.60
2017-09-02T10:31:25.082Z,99.00
2017-09-02T10:33:52.516Z,98.80
2017-09-02T10:36:19.963Z,96.90
2017-09-02T10:38:47.405Z,99.10
2017-09-02T10:41:14.847Z,97.40
2017-09-02T10:43:42.291Z,98.20
2017-09-02T10:46:09.740Z,99.90
2017-09-02T10:48:37.190Z,99.50
2017-09-02T10:51:04.749Z,96.00
2017-09-02T10:53:32.167Z,95.00
2017-09-02T10:56:00.436Z,95.90
2017-09-02T10:58:27.893Z,94.80
2017-09-02T11:00:55.335Z,97.50
2017-09-02T11:03:22.776Z,96.00
2017-09-02T11:05:50.220Z,95.60
2017-09-02T11:08:17.664Z,97.00
2017-09-02T11:10:45.107Z,93.00
2017-09-02T11:13:12.552Z,92.50
2017-09-02T11:15:39.990Z,91.60
2017-09-02T11:18:07.436Z,90.40
2017-09-02T11:20:34.962Z,90.40
2017-09-02T11:23:02.396Z,90.00
2017-09-02T11:25:29.830Z,84.70
2017-09-02T11:27:57.280Z,84.70
2017-09-02T11:30:24.718Z,82.40
2017-09-02T11:32:52.163Z,84.60
2017-09-02T11:35:19.604Z,81.50
2017-09-02T11:37:47.048Z,81.90
2017-09-02T11:40:14.491Z,80.60
2017-09-02T11:42:41.927Z,80.10
2017-09-02T11:45:09.368Z,76.30
2017-09-02T11:47:36.821Z,79.50
2017-09-02T11:50:04.355Z,82.60
2017-09-02T11:52:31.806Z,81.60
2017-09-02T11:54:59.241Z,84.10
2017-09-02T11:57:26.677Z,83.10
2017-09-02T11:59:54.121Z,83.40
2017-09-02T12:02:21.552Z,86.40
2017-09-02T12:04:49.003Z,85.50
2017-09-02T12:07:16.432Z,83.90
2017-09-02T12:09:43.871Z,80.60
2017-09-02T12:12:11.381Z,84.00
2017-09-02T12:14:38.815Z,81.70
2017-09-02T12:17:06.255Z,80.20
2017-09-02T12:19:33.700Z,81.20
2017-09-02T12:22:01.143Z,80.80
2017-09-02T12:24:28.584Z,81.90
2017-09-02T12:26:56.023Z,81.50
2017-09-02T12:29:23.474Z,80.60
2017-09-02T12:31:50.906Z,75.80
2017-09-02T12:34:18.388Z,75.30
2017-09-02T12:36:45.822Z,76.30
2017-09-02T12:39:13.268Z,76.70
2017-09-02T12:41:40.705Z,74.50
2017-09-02T12:44:08.147Z,73.60
2017-09-02T12:46:35.595Z,72.10
2017-09-02T12:49:03.041Z,74.60
2017-09-02T12:51:30.484Z,71.10
2017-09-02T12:53:57.950Z,71.40
2017-09-02T12:56:25.404Z,73.90
2017-09-02T12:58:52.848Z,73.90
2017-09-02T13:01:20.293Z,75.60
2017-09-02T13:03:47.738Z,75.00
2017-09-02T13:06:15.185Z,77.30
2017-09-02T13:08:42.627Z,77.80
2017-09-02T13:11:10.072Z,73.90
2017-09-02T13:13:37.516Z,75.80
2017-09-02T13:16:04.970Z,72.80
2017-09-02T13:18:32.412Z,74.50
2017-09-02T13:20:59.864Z,79.50
2017-09-02T13:23:27.312Z,80.10
2017-09-02T13:25:54.761Z,80.00
2017-09-02T13:28:22.201Z,82.60
2017-09-02T13:30:49.639Z,83.50
2017-09-02T13:33:17.075Z,85.10
2017-09-02T13:35:44.519Z,90.30
2017-09-02T13:38:11.959Z,88.60
2017-09-02T13:40:39.397Z,88.60
2017-09-02T13:43:06.837Z,88.80
2017-09-02T13:45:34.279Z,89.90
2017-09-02T13:48:01.730Z,91.60
2017-09-02T13:50:29.156Z,87.00
2017-09-02T13:52:56.596Z,86.40
2017-09-02T13:55:24.037Z,84.10
2017-09-02T13:57:51.484Z,87.10
2017-09-02T14:00:18.923Z,83.60
2017-09-02T14:02:46.379Z,83.50
2017-09-02T14:05:13.817Z,85.40
2017-09-02T14:07:41.263Z,83.80
2017-09-02T14:10:08.708Z,83.70
2017-09-02T14:12:36.148Z,82.30
2017-09-02T14:15:03.587Z,81.70
2017-09-02T14:17:31.032Z,81.70
2017-09-02T14:19:58.472Z,79.80
2017-09-02T14:22:25.919Z,82.50
2017-09-02T14:24:53.359Z,84.80
2017-09-02T14:27:20.803Z,83.50
2017-09-02T14:29:48.244Z,77.90
2017-09-02T14:32:15.689Z,79.10
2017-09-02T14:34:43.132Z,79.90
2017-09-02T14:37:10.583Z,80.10
2017-09-02T14:39:38.022Z,81.80
2017-09-02T14:42:05.468Z,83.60
2017-09-02T14:44:32.917Z,80.00
2017-09-02T14:47:00.356Z,79.90
2017-09-02T14:49:27.796Z,81.90
2017-09-02T14:51:55.239Z,79.00
2017-09-02T14:54:22.679Z,81.20
2017-09-02T14:56:50.122Z,81.70
2017-09-02T14:59:17.568Z,81.10
2017-09-02T15:01:45.009Z,79.00
2017-09-02T15:04:12.448Z,81.60
2017-09-02T15:06:39.891Z,80.70
2017-09-02T15:09:07.328Z,81.60
2017-09-02T15:11:34.770Z,80.70
2017-09-02T15:14:02.211Z,81.10
2017-09-02T15:16:29.647Z,83.10
2017-09-02T15:18:57.095Z,82.30
2017-09-02T15:21:24.525Z,82.30
2017-09-02T15:23:51.970Z,82.60
2017-09-02T15:26:19.411Z,84.30
2017-09-02T15:28:46.854Z,84.50
2017-09-02T15:31:14.287Z,84.50
2017-09-02T15:33:41.730Z,85.50
2017-09-02T15:36:09.170Z,85.00
2017-09-02T15:38:36.604Z,84.90
2017-09-02T15:41:04.051Z,84.60
2017-09-02T15:43:31.496Z,85.90
2017-09-02T15:45:58.926Z,84.50
2017-09-02T15:48:26.373Z,83.80
2017-09-02T15:50:53.812Z,84.80
2017-09-02T15:53:21.344Z,85.40
2017-09-02T15:55:48.773Z,85.60
2017-09-02T15:58:16.211Z,86.40
2017-09-02T16:00:43.656Z,86.10
2017-09-02T16:03:11.086Z,87.70
2017-09-02T16:05:38.539Z,83.40
2017-09-02T16:08:05.973Z,84.90
2017-09-02T16:10:33.416Z,87.60
2017-09-02T16:13:00.852Z,85.50
2017-09-02T16:15:28.303Z,83.80
2017-09-02T16:17:55.739Z,84.10
2017-09-02T16:20:23.173Z,84.20
2017-09-02T16:22:50.611Z,85.70
2017-09-02T16:25:18.052Z,86.10
2017-09-02T16:27:45.490Z,86.10
2017-09-02T16:30:12.927Z,86.60
2017-09-02T16:32:40.365Z,85.50
2017-09-02T16:35:07.807Z,86.60
2017-09-02T16:37:35.248Z,87.30
2017-09-02T16:40:02.695Z,87.20
2017-09-02T16:42:30.136Z,88.50
2017-09-02T16:44:57.576Z,88.00
2017-09-02T16:47:25.013Z,88.50
2017-09-02T16:49:52.459Z,87.60
2017-09-02T16:52:19.897Z,89.40
2017-09-02T16:54:47.339Z,88.80
2017-09-02T16:57:14.783Z,86.60
2017-09-02T16:59:42.213Z,86.30
2017-09-02T17:02:09.648Z,86.50
2017-09-02T17:04:37.084Z,87.70
2017-09-02T17:07:04.527Z,88.00
2017-09-02T17:09:31.963Z,90.20
2017-09-02T17:11:59.418Z,88.30
2017-09-02T17:14:26.843Z,89.90
2017-09-02T17:16:54.292Z,90.10
2017-09-02T17:19:21.728Z,91.10
2017-09-02T17:21:49.180Z,91.30
2017-09-02T17:24:16.614Z,92.20
2017-09-02T17:26:44.066Z,92.00
2017-09-02T17:29:11.512Z,92.00
2017-09-02T17:31:38.951Z,92.30
2017-09-02T17:34:06.384Z,91.80
2017-09-02T17:36:33.828Z,91.60
2017-09-02T17:39:01.260Z,92.20
2017-09-02T17:41:28.699Z,92.10
2017-09-02T17:43:56.140Z,92.00
2017-09-02T17:46:23.577Z,91.50
2017-09-02T17:48:51.015Z,91.40
2017-09-02T17:51:18.463Z,91.40
2017-09-02T17:53:45.894Z,91.20
2017-09-02T17:56:13.347Z,90.90
2017-09-02T17:58:40.780Z,91.10
2017-09-02T18:01:08.223Z,90.70
2017-09-02T18:03:35.666Z,91.10
2017-09-02T18:06:03.372Z,91.60
2017-09-02T18:08:30.800Z,91.50
2017-09-02T18:10:58.236Z,90.90
2017-09-02T18:13:25.680Z,90.80
2017-09-02T18:15:53.112Z,91.20
2017-09-02T18:18:20.560Z,91.30
2017-09-02T18:20:48.000Z,91.80
2017-09-02T18:23:15.450Z,92.10
2017-09-02T18:25:42.891Z,92.60
2017-09-02T18:28:10.344Z,91.70
2017-09-02T18:30:37.787Z,92.20
2017-09-02T18:33:05.231Z,92.70
2017-09-02T18:35:32.675Z,92.20
2017-09-02T18:38:00.122Z,91.70
2017-09-02T18:40:27.563Z,92.20
2017-09-02T18:42:55.012Z,92.60
2017-09-02T18:45:22.460Z,92.80
2017-09-02T18:47:49.908Z,92.70
2017-09-02T18:50:17.349Z,92.80
2017-09-02T18:52:44.799Z,92.80
2017-09-02T18:55:12.240Z,92.80
2017-09-02T18:57:39.700Z,93.10
2017-09-02T19:00:07.141Z,93.00
2017-09-02T19:02:34.576Z,93.40
2017-09-02T19:05:02.022Z,93.50
2017-09-02T19:07:29.464Z,93.70
2017-09-02T19:09:56.906Z,94.20
2017-09-02T19:12:24.367Z,94.20
2017-09-02T19:14:51.791Z,94.80
2017-09-02T19:17:19.240Z,95.40
2017-09-02T19:19:46.687Z,94.70
2017-09-02T19:22:14.124Z,94.20
2017-09-02T19:24:41.568Z,94.20
2017-09-02T19:27:09.003Z,94.60
2017-09-02T19:29:36.444Z,95.10
2017-09-02T19:32:03.883Z,94.60
2017-09-02T19:34:31.329Z,94.40
2017-09-02T19:36:58.768Z,94.00
2017-09-02T19:39:26.212Z,93.80
2017-09-02T19:41:53.652Z,94.40
2017-09-02T19:44:21.097Z,94.30
2017-09-02T19:46:48.542Z,94.70
2017-09-02T19:49:15.979Z,94.80
2017-09-02T19:51:43.420Z,95.30
2017-09-02T19:54:10.867Z,94.30
2017-09-02T19:56:38.316Z,93.90
2017-09-02T19:59:05.773Z,94.80
2017-09-02T20:01:33.208Z,94.20
2017-09-02T20:04:00.647Z,93.50
2017-09-02T20:06:28.091Z,94.10
2017-09-02T20:08:55.533Z,93.30
2017-09-02T20:11:22.976Z,93.90
2017-09-02T20:13:50.416Z,94.40
2017-09-02T20:16:17.859Z,93.70
2017-09-02T20:18:45.301Z,93.90
2017-09-02T20:21:12.746Z,94.00
2017-09-02T20:23:40.184Z,94.10
2017-09-02T20:26:07.623Z,94.50
2017-09-02T20:28:35.064Z,94.60
2017-09-02T20:31:02.504Z,94.00
2017-09-02T20:33:29.948Z,93.90
2017-09-02T20:35:57.395Z,94.30
2017-09-02T20:38:24.833Z,93.90
2017-09-02T20:40:52.283Z,94.10
2017-09-02T20:43:19.720Z,94.30
2017-09-02T20:45:47.172Z,94.20
2017-09-02T20:48:14.604Z,94.50
2017-09-02T20:50:42.048Z,93.80
2017-09-02T20:53:09.494Z,94.00
2017-09-02T20:55:36.944Z,94.30
2017-09-02T20:58:04.384Z,95.00
2017-09-02T21:00:31.847Z,93.50
2017-09-02T21:02:59.282Z,93.40
2017-09-02T21:05:26.722Z,93.60
2017-09-02T21:07:54.162Z,93.50
2017-09-02T21:10:21.603Z,93.40
2017-09-02T21:12:49.047Z,93.50
2017-09-02T21:15:16.476Z,94.20
2017-09-02T21:17:43.910Z,92.90
2017-09-02T21:20:11.354Z,92.90
2017-09-02T21:22:38.796Z,92.70
2017-09-02T21:25:06.246Z,92.80
2017-09-02T21:27:33.674Z,93.00
2017-09-02T21:30:01.117Z,93.30
2017-09-02T21:32:28.560Z,93.10
2017-09-02T21:34:55.996Z,93.40
2017-09-02T21:37:23.436Z,93.80
2017-09-02T21:39:50.862Z,93.30
2017-09-02T21:42:18.309Z,93.50
2017-09-02T21:44:45.744Z,92.90
2017-09-02T21:47:13.194Z,93.90
2017-09-02T21:49:40.629Z,94.40
2017-09-02T21:52:08.068Z,94.40
2017-09-02T21:54:35.514Z,93.90
2017-09-02T21:57:02.947Z,93.80
2017-09-02T21:59:30.384Z,94.30
2017-09-02T22:01:57.843Z,94.00
2017-09-02T22:04:25.283Z,93.90
2017-09-02T22:06:52.724Z,94.20
2017-09-02T22:09:20.169Z,94.40
2017-09-02T22:11:47.620Z,93.70
2017-09-02T22:14:15.073Z,94.00
2017-09-02T22:16:42.509Z,94.90
2017-09-02T22:19:09.952Z,94.30
2017-09-02T22:21:37.391Z,95.30
2017-09-02T22:24:04.835Z,95.10
2017-09-02T22:26:32.276Z,94.10
2017-09-02T22:28:59.712Z,94.10
2017-09-02T22:31:27.149Z,93.90
2017-09-02T22:33:54.583Z,93.20
2017-09-02T22:36:22.015Z,93.70
2017-09-02T22:38:49.463Z,93.90
2017-09-02T22:41:16.902Z,93.60
2017-09-02T22:43:44.348Z,94.00
2017-09-02T22:46:11.789Z,94.10
2017-09-02T22:48:39.238Z,94.50
2017-09-02T22:51:06.676Z,95.10
2017-09-02T22:53:34.119Z,95.10
2017-09-02T22:56:01.555Z,95.00
2017-09-02T22:58:28.997Z,94.20
2017-09-02T23:00:56.440Z,94.50
2017-09-02T23:03:23.896Z,94.50
2017-09-02T23:05:51.345Z,94.00
2017-09-02T23:08:18.770Z,94.70
2017-09-02T23:10:46.211Z,95.70
2017-09-02T23:13:13.656Z,94.30
2017-09-02T23:15:41.108Z,94.90
2017-09-02T23:18:08.565Z,95.70
2017-09-02T23:20:35.999Z,94.10
2017-09-02T23:23:03.440Z,94.10
2017-09-02T23:25:30.883Z,95.00
2017-09-02T23:27:58.324Z,93.80
2017-09-02T23:30:25.768Z,94.60
2017-09-02T23:32:53.208Z,95.50
2017-09-02T23:35:20.653Z,94.70
2017-09-02T23:37:48.088Z,95.00
2017-09-02T23:40:15.532Z,96.00
2017-09-02T23:42:42.964Z,96.20
2017-09-02T23:45:10.410Z,96.70
2017-09-02T23:47:37.848Z,96.90
2017-09-02T23:50:05.300Z,97.10
2017-09-02T23:52:32.743Z,97.30
2017-09-02T23:55:00.305Z,97.50
2017-09-02T23:57:27.730Z,97.70
2017-09-02T23:59:55.170Z,97.80
